Time;durP1;ratioP1;P1;durP2;ratioP2;P2;SDS_P1;SDS_P2;PMS_P1;PMS_P2;Temp;Humidity;BMP_temperature;BMP_pressure;BME280_temperature;BME280_humidity;BME280_pressure;Samples;Min_cycle;Max_cycle;Signal;HPM_P1;HPM_P2
2021/01/02 00:00:50;;;;;;;27.88;18.75;;;;;;;0.56;86.76;95848.38;5098928;28;20034;-91
2021/01/02 00:03:46;;;;;;;28.35;19.02;;;;;;;0.62;85.56;95859.38;5100167;28;20408;-91
2021/01/02 00:06:27;;;;;;;26.98;17.27;;;;;;;0.67;85.51;95856.25;5099852;28;20107;-91
2021/01/02 00:09:06;;;;;;;28.75;19.00;;;;;;;0.59;85.99;95841.50;5107847;28;20482;-91
2021/01/02 00:11:50;;;;;;;26.08;17.58;;;;;;;0.67;85.19;95866.94;5118150;28;20023;-91
2021/01/02 00:14:25;;;;;;;26.27;17.65;;;;;;;0.47;85.23;95832.09;5098617;28;20052;-91
2021/01/02 00:16:59;;;;;;;25.70;17.75;;;;;;;0.74;85.66;95864.16;5113121;28;20035;-91
2021/01/02 00:19:43;;;;;;;28.20;17.80;;;;;;;0.74;85.60;95870.25;5119936;28;20080;-91
2021/01/02 00:22:15;;;;;;;30.77;18.65;;;;;;;0.71;85.44;95883.69;5118701;28;20062;-91
2021/01/02 00:24:57;;;;;;;27.10;19.23;;;;;;;0.56;85.64;95855.66;5119822;27;20027;-91
2021/01/02 00:27:27;;;;;;;29.00;20.60;;;;;;;0.78;87.36;95889.69;5118918;28;20031;-91
2021/01/02 00:29:59;;;;;;;27.83;18.95;;;;;;;0.80;86.75;95886.63;5118928;28;20035;-91
2021/01/02 00:32:45;;;;;;;29.30;20.00;;;;;;;0.51;86.25;95846.91;5098237;28;20434;-90
2021/01/02 00:35:15;;;;;;;29.10;19.50;;;;;;;0.78;85.85;95883.59;5098391;28;20073;-90
2021/01/02 00:37:43;;;;;;;27.75;19.50;;;;;;;0.68;86.19;95861.19;5098874;28;20024;-91
2021/01/02 00:40:14;;;;;;;29.30;19.95;;;;;;;0.74;86.24;95874.84;5099179;28;20051;-91
2021/01/02 00:42:42;;;;;;;30.50;19.90;;;;;;;0.66;85.79;95876.13;5099691;28;20391;-90
2021/01/02 00:45:10;;;;;;;30.38;20.60;;;;;;;0.61;85.90;95842.59;5099295;28;20120;-91
2021/01/02 00:47:43;;;;;;;34.85;22.23;;;;;;;0.91;86.22;95897.94;5117721;28;20046;-90
2021/01/02 00:50:11;;;;;;;30.50;21.55;;;;;;;0.89;85.86;95902.16;5118465;28;20038;-90
2021/01/02 00:52:46;;;;;;;33.17;22.67;;;;;;;0.91;86.60;95903.28;5118338;28;20023;-90
2021/01/02 00:55:35;;;;;;;33.80;21.63;;;;;;;0.93;85.72;95910.88;5118314;28;20038;-90
2021/01/02 00:58:29;;;;;;;32.22;20.67;;;;;;;0.91;85.75;95892.56;5119294;28;20031;-91
2021/01/02 01:01:05;;;;;;;31.35;21.33;;;;;;;0.97;86.02;95908.91;5118622;28;20072;-90
2021/01/02 01:03:34;;;;;;;31.40;21.65;;;;;;;1.01;86.16;95906.94;5118050;28;20372;-91
2021/01/02 01:06:03;;;;;;;30.38;21.67;;;;;;;0.71;85.11;95846.28;5117989;28;20058;-90
2021/01/02 01:08:32;;;;;;;30.85;20.42;;;;;;;0.93;85.60;95886.81;5117752;28;20335;-90
2021/01/02 01:11:01;;;;;;;28.30;20.55;;;;;;;0.95;84.93;95893.25;5118917;28;20027;-90
2021/01/02 01:13:27;;;;;;;31.10;20.90;;;;;;;1.12;86.09;95910.22;5117903;28;20016;-90
2021/01/02 01:15:52;;;;;;;29.17;20.20;;;;;;;0.84;86.03;95883.88;5108500;28;20093;-89
2021/01/02 01:18:18;;;;;;;32.53;21.33;;;;;;;1.08;86.09;95911.44;5097451;28;20066;-90
2021/01/02 01:20:57;;;;;;;27.20;19.52;;;;;;;1.12;85.79;95912.13;5097235;28;20055;-90
2021/01/02 01:23:50;;;;;;;29.65;20.17;;;;;;;1.11;85.92;95911.38;5098354;28;20047;-90
2021/01/02 01:26:20;;;;;;;28.98;19.40;;;;;;;0.94;85.79;95882.97;5098903;28;20019;-90
2021/01/02 01:28:49;;;;;;;24.80;17.63;;;;;;;1.12;86.20;95888.03;5097218;28;20043;-90
2021/01/02 01:31:18;;;;;;;23.30;15.77;;;;;;;1.10;85.29;95901.06;5112625;28;20023;-90
2021/01/02 01:33:51;;;;;;;20.10;14.60;;;;;;;0.97;84.92;95860.78;5118503;28;20102;-89
2021/01/02 01:36:20;;;;;;;21.98;15.23;;;;;;;1.03;84.56;95875.94;5117481;28;20319;-89
2021/01/02 01:38:52;;;;;;;20.45;14.88;;;;;;;0.95;85.09;95868.44;5117472;28;20019;-89
2021/01/02 01:41:18;;;;;;;19.85;14.68;;;;;;;1.32;85.72;95904.91;5117517;28;20020;-89
2021/01/02 01:43:49;;;;;;;25.90;17.83;;;;;;;1.29;84.76;95903.06;5117344;28;20023;-89
2021/01/02 01:46:16;;;;;;;27.13;18.75;;;;;;;1.17;84.42;95890.25;5116880;28;20031;-89
2021/01/02 01:49:04;;;;;;;26.60;18.05;;;;;;;1.37;84.11;95899.09;5117297;28;20371;-89
2021/01/02 01:51:54;;;;;;;25.40;17.50;;;;;;;1.01;84.92;95850.75;5097038;28;20036;-90
2021/01/02 01:54:47;;;;;;;22.33;16.52;;;;;;;1.33;84.48;95903.00;5096850;28;20036;-89
2021/01/02 01:57:25;;;;;;;22.40;16.77;;;;;;;1.00;84.77;95860.69;5096897;28;20024;-89
2021/01/02 01:59:56;;;;;;;26.02;17.02;;;;;;;1.26;85.23;95899.28;5102586;28;20024;-90
2021/01/02 02:02:47;;;;;;;24.13;16.25;;;;;;;1.28;84.67;95902.31;5116909;28;20030;-89
2021/01/02 02:05:24;;;;;;;23.90;16.05;;;;;;;1.28;84.61;95902.31;5116813;28;20331;-90
2021/01/02 02:08:01;;;;;;;23.70;15.65;;;;;;;1.29;84.28;95871.72;5118322;28;20031;-89
2021/01/02 02:10:32;;;;;;;21.60;15.73;;;;;;;1.21;84.28;95862.28;5117136;28;20023;-90
2021/01/02 02:13:00;;;;;;;23.60;15.00;;;;;;;1.33;84.69;95865.53;5116817;28;20047;-90
2021/01/02 02:15:28;;;;;;;23.83;15.55;;;;;;;1.37;84.18;95882.28;5116759;28;20050;-89
2021/01/02 02:18:06;;;;;;;19.30;13.95;;;;;;;1.11;84.13;95844.47;5116857;28;20027;-89
2021/01/02 02:20:34;;;;;;;20.13;13.32;;;;;;;1.18;83.81;95848.97;5116098;28;20047;-89
2021/01/02 02:23:05;;;;;;;16.50;12.13;;;;;;;1.47;83.63;95884.78;5116535;28;20031;-89
2021/01/02 02:26:05;;;;;;;17.70;12.85;;;;;;;1.48;83.73;95888.97;5116855;28;20020;-89
2021/01/02 02:28:45;;;;;;;19.85;13.38;;;;;;;1.47;84.42;95900.84;5118293;28;20034;-89
2021/01/02 02:31:15;;;;;;;23.02;14.85;;;;;;;1.28;84.48;95866.78;5107841;28;20096;-89
2021/01/02 02:33:52;;;;;;;25.83;15.35;;;;;;;1.35;83.27;95874.69;5116734;28;20042;-89
2021/01/02 02:36:19;;;;;;;23.67;14.65;;;;;;;1.41;83.99;95878.38;5117589;28;20028;-89
2021/01/02 02:38:45;;;;;;;23.20;14.77;;;;;;;1.30;83.17;95875.91;5116668;28;20023;-89
2021/01/02 02:41:14;;;;;;;22.10;15.05;;;;;;;0.80;83.41;95801.06;5116584;28;20028;-89
2021/01/02 02:43:42;;;;;;;19.60;13.75;;;;;;;1.45;83.60;95900.50;5116526;28;20026;-89
2021/01/02 02:46:16;;;;;;;22.33;15.88;;;;;;;1.23;83.19;95864.56;5117479;28;20031;-89
2021/01/02 02:48:44;;;;;;;19.52;13.60;;;;;;;1.11;83.54;95841.81;5116504;28;20035;-89
2021/01/02 02:51:13;;;;;;;17.10;12.32;;;;;;;1.21;82.72;95866.88;5116570;28;20047;-89
2021/01/02 02:53:39;;;;;;;17.73;12.27;;;;;;;1.30;82.72;95869.78;5117532;28;20319;-89
2021/01/02 02:56:05;;;;;;;15.65;11.65;;;;;;;1.20;83.33;95860.78;5116399;28;20031;-89
2021/01/02 02:58:30;;;;;;;16.05;11.23;;;;;;;1.35;83.02;95874.69;5117444;28;20515;-89
2021/01/02 03:00:56;;;;;;;14.65;10.70;;;;;;;1.16;83.40;95867.34;5115951;28;20020;-89
2021/01/02 03:03:22;;;;;;;14.70;10.50;;;;;;;1.18;83.68;95852.41;5116378;28;20035;-89
2021/01/02 03:05:49;;;;;;;14.32;10.18;;;;;;;1.43;82.50;95894.78;5116261;28;20334;-89
2021/01/02 03:08:15;;;;;;;15.13;10.27;;;;;;;1.17;83.47;95850.91;5116317;28;20023;-88
2021/01/02 03:10:43;;;;;;;15.55;10.93;;;;;;;1.53;83.41;95907.22;5116466;28;20047;-89
2021/01/02 03:13:08;;;;;;;15.50;10.75;;;;;;;1.17;83.21;95844.78;5116450;28;20027;-89
2021/01/02 03:15:39;;;;;;;15.25;10.77;;;;;;;1.33;83.58;95854.81;5116308;28;20015;-89
2021/01/02 03:18:04;;;;;;;13.73;10.45;;;;;;;1.49;83.82;95879.78;5116462;28;20023;-89
2021/01/02 03:20:30;;;;;;;16.73;11.40;;;;;;;1.34;84.24;95845.66;5116443;28;20314;-89
2021/01/02 03:22:55;;;;;;;16.40;11.57;;;;;;;1.28;83.51;95846.13;5116212;28;20024;-89
2021/01/02 03:25:21;;;;;;;14.50;10.57;;;;;;;1.60;84.02;95897.56;5116333;28;20031;-89
2021/01/02 03:27:51;;;;;;;16.63;11.50;;;;;;;1.66;84.43;95899.38;5117361;28;20028;-89
2021/01/02 03:30:16;;;;;;;14.00;11.07;;;;;;;1.55;84.39;95891.53;5116247;28;20023;-90
2021/01/02 03:32:42;;;;;;;14.73;10.80;;;;;;;1.41;84.59;95869.59;5119192;28;20024;-89
2021/01/02 03:35:13;;;;;;;15.40;11.05;;;;;;;1.64;84.36;95898.25;5120943;28;20054;-90
2021/01/02 03:37:40;;;;;;;15.02;10.70;;;;;;;1.68;83.86;95898.97;5121013;28;20107;-89
2021/01/02 03:40:10;;;;;;;13.10;10.40;;;;;;;1.46;84.64;95861.84;5120115;28;20023;-89
2021/01/02 03:42:40;;;;;;;15.40;10.68;;;;;;;1.46;84.75;95861.09;5120813;28;20482;-89
2021/01/02 03:45:07;;;;;;;13.77;9.83;;;;;;;1.79;84.14;95897.59;5111737;27;20072;-89
2021/01/02 03:47:33;;;;;;;11.93;9.10;;;;;;;1.59;83.19;95870.03;5120029;28;20031;-89
2021/01/02 03:49:58;;;;;;;13.80;10.43;;;;;;;1.80;83.48;95903.72;5119570;28;20031;-89
2021/01/02 03:52:23;;;;;;;15.65;11.30;;;;;;;1.57;83.10;95881.16;5119810;28;20069;-89
2021/01/02 03:54:49;;;;;;;14.85;10.43;;;;;;;1.53;84.00;95877.78;5120387;28;20047;-89
2021/01/02 03:57:14;;;;;;;13.48;9.80;;;;;;;1.46;83.81;95875.25;5119377;28;20114;-89
2021/01/02 03:59:50;;;;;;;13.35;9.45;;;;;;;1.46;84.09;95874.50;5113161;28;20315;-89
2021/01/02 04:02:15;;;;;;;11.95;9.45;;;;;;;1.35;83.86;95857.88;5117592;28;20024;-89
2021/01/02 04:04:40;;;;;;;12.85;9.27;;;;;;;1.38;84.79;95857.03;5119304;28;20055;-89
2021/01/02 04:07:06;;;;;;;13.60;8.80;;;;;;;1.69;84.40;95914.63;5119241;28;20480;-89
2021/01/02 04:09:31;;;;;;;9.57;7.85;;;;;;;1.42;83.56;95857.72;5119206;28;20319;-89
2021/01/02 04:11:57;;;;;;;10.93;8.45;;;;;;;1.71;83.26;95914.97;5119138;28;20023;-90
2021/01/02 04:14:22;;;;;;;10.40;8.35;;;;;;;1.36;83.73;95852.09;5119131;28;20021;-89
2021/01/02 04:16:48;;;;;;;11.85;8.80;;;;;;;1.64;84.57;95900.94;5119030;28;20024;-89
2021/01/02 04:19:13;;;;;;;10.10;8.27;;;;;;;1.39;83.46;95880.72;5116140;28;20026;-89
2021/01/02 04:21:40;;;;;;;11.77;8.25;;;;;;;1.30;83.29;95867.13;5118911;28;20419;-89
2021/01/02 04:24:06;;;;;;;12.13;8.90;;;;;;;1.27;83.57;95862.56;5118963;28;20054;-90
2021/01/02 04:26:32;;;;;;;11.77;8.07;;;;;;;1.40;84.14;95906.31;5118804;28;20027;-89
2021/01/02 04:28:58;;;;;;;10.88;8.10;;;;;;;1.42;83.61;95914.69;5119884;28;20124;-89
2021/01/02 04:31:38;;;;;;;11.48;7.68;;;;;;;1.35;84.29;95893.41;5118776;28;20069;-89
2021/01/02 04:34:05;;;;;;;10.43;7.68;;;;;;;1.38;83.30;95902.53;5118729;28;20077;-89
2021/01/02 04:36:31;;;;;;;9.48;7.38;;;;;;;1.12;84.29;95867.41;5118768;28;20031;-90
2021/01/02 04:38:57;;;;;;;12.68;8.20;;;;;;;1.41;84.52;95913.19;5119746;28;20031;-89
2021/01/02 04:41:23;;;;;;;10.45;7.80;;;;;;;1.26;84.55;95891.25;5118592;28;20047;-90
2021/01/02 04:43:52;;;;;;;11.07;7.95;;;;;;;1.11;84.65;95884.59;5118928;28;20063;-89
2021/01/02 04:46:18;;;;;;;11.18;8.40;;;;;;;1.12;83.89;95891.50;5118612;28;20031;-89
2021/01/02 04:48:45;;;;;;;10.02;7.38;;;;;;;1.16;84.15;95921.59;5114124;28;20072;-89
2021/01/02 04:51:12;;;;;;;11.57;8.38;;;;;;;1.20;84.96;95914.28;5118306;28;20054;-89
2021/01/02 04:53:38;;;;;;;10.15;7.75;;;;;;;1.14;85.06;95929.28;5119342;28;20028;-89
2021/01/02 04:56:05;;;;;;;9.90;7.40;;;;;;;1.15;85.07;95930.03;5119243;28;20080;-90
2021/01/02 04:58:32;;;;;;;10.18;7.88;;;;;;;0.78;84.84;95880.91;5119231;28;20027;-89
2021/01/02 05:00:58;;;;;;;11.18;7.97;;;;;;;1.12;85.37;95923.59;5118097;28;20024;-89
2021/01/02 05:03:24;;;;;;;10.52;7.78;;;;;;;0.83;85.33;95866.34;5103905;28;20048;-89
2021/01/02 05:05:50;;;;;;;11.95;9.00;;;;;;;1.17;85.43;95917.78;5097551;28;20048;-90
2021/01/02 05:08:15;;;;;;;11.77;8.32;;;;;;;0.90;85.06;95915.09;5097616;28;20411;-90
2021/01/02 05:10:41;;;;;;;12.10;8.63;;;;;;;1.21;86.20;95939.13;5098583;28;20028;-89
2021/01/02 05:13:14;;;;;;;9.40;8.38;;;;;;;0.90;85.02;95893.72;5098479;28;20099;-89
2021/01/02 05:15:40;;;;;;;12.93;8.15;;;;;;;0.99;85.40;95903.91;5098525;28;20024;-89
2021/01/02 05:18:05;;;;;;;9.98;8.32;;;;;;;0.30;85.65;95819.75;5113244;28;20072;-90
2021/01/02 05:20:31;;;;;;;11.20;8.48;;;;;;;1.07;85.08;95931.31;5117673;28;20027;-90
2021/01/02 05:23:07;;;;;;;10.95;8.23;;;;;;;0.72;84.75;95883.28;5117689;28;20051;-89
2021/01/02 05:25:32;;;;;;;11.20;7.97;;;;;;;0.84;85.42;95913.31;5119309;28;20027;-90
2021/01/02 05:27:58;;;;;;;14.15;8.95;;;;;;;0.81;85.44;95898.84;5117722;28;20292;-90
2021/01/02 05:30:29;;;;;;;13.35;9.75;;;;;;;0.96;85.56;95940.25;5117680;28;20027;-90
2021/01/02 05:33:03;;;;;;;;;;;;;;;0.96;85.88;95947.50;5105775;28;20024;-90
2021/01/02 05:35:46;;;;;;;14.75;10.27;;;;;;;0.70;85.96;95903.59;5097173;28;19908;-89
2021/01/02 05:38:21;;;;;;;11.85;9.38;;;;;;;0.95;86.01;95954.78;5097153;28;20032;-90
2021/01/02 05:40:46;;;;;;;15.70;10.70;;;;;;;0.88;85.56;95959.47;5097268;28;20054;-90
2021/01/02 05:43:16;;;;;;;13.93;9.85;;;;;;;0.94;86.88;95947.91;5098433;28;20056;-90
2021/01/02 05:45:42;;;;;;;14.10;9.10;;;;;;;1.02;86.26;95949.34;5096927;28;20028;-90
2021/01/02 05:48:13;;;;;;;13.20;9.02;;;;;;;0.63;85.88;95887.63;5114835;28;20034;-90
2021/01/02 05:50:46;;;;;;;12.15;9.60;;;;;;;0.74;86.22;95910.38;5117223;28;20024;-90
2021/01/02 05:53:19;;;;;;;11.75;8.43;;;;;;;0.75;85.57;95911.16;5118649;28;20115;-90
2021/01/02 05:55:44;;;;;;;12.55;9.00;;;;;;;0.82;86.37;95919.06;5112953;28;20357;-89
2021/01/02 05:58:17;;;;;;;9.82;8.40;;;;;;;0.83;85.53;95922.50;5118108;28;20019;-90
2021/01/02 06:00:44;;;;;;;11.68;8.90;;;;;;;0.94;85.69;95934.53;5117969;28;20031;-90
2021/01/02 06:03:26;;;;;;;14.52;9.80;;;;;;;0.94;85.37;95950.59;5117322;28;20026;-90
2021/01/02 06:06:05;;;;;;;15.73;9.27;;;;;;;0.92;86.83;95949.50;5117986;28;20435;-90
2021/01/02 06:08:39;;;;;;;15.50;11.23;;;;;;;0.82;86.62;95921.72;5117069;28;20058;-90
2021/01/02 06:11:19;;;;;;;16.52;10.82;;;;;;;1.08;86.19;95948.88;5117144;28;20403;-90
2021/01/02 06:13:50;;;;;;;14.98;11.10;;;;;;;1.01;87.24;95955.06;5117982;28;20019;-90
2021/01/02 06:16:16;;;;;;;13.98;10.52;;;;;;;0.92;87.55;95922.75;5117946;28;20023;-90
2021/01/02 06:18:43;;;;;;;14.20;10.48;;;;;;;1.11;87.55;95948.06;5117978;28;20080;-90
2021/01/02 06:21:11;;;;;;;14.52;10.27;;;;;;;1.12;86.74;95954.91;5114565;28;20024;-89
2021/01/02 06:23:38;;;;;;;12.05;9.65;;;;;;;0.67;86.21;95888.34;5117828;28;20111;-90
2021/01/02 06:26:10;;;;;;;23.77;15.23;;;;;;;1.24;86.72;95949.78;5116836;28;20019;-90
2021/01/02 06:28:37;;;;;;;20.52;14.18;;;;;;;1.07;85.59;95937.44;5116799;28;20121;-89
2021/01/02 06:31:06;;;;;;;19.65;13.55;;;;;;;1.23;86.76;95950.94;5116551;28;20410;-89
2021/01/02 06:33:31;;;;;;;20.55;13.27;;;;;;;1.13;86.23;95957.22;5116975;28;20035;-90
2021/01/02 06:35:58;;;;;;;17.38;12.15;;;;;;;0.76;86.12;95899.28;5115601;28;20067;-89
2021/01/02 06:38:24;;;;;;;18.35;13.15;;;;;;;1.15;86.59;95952.19;5117665;28;20080;-90
2021/01/02 06:40:52;;;;;;;20.27;13.43;;;;;;;0.97;86.04;95911.59;5109096;28;20422;-89
2021/01/02 06:43:20;;;;;;;17.05;12.80;;;;;;;0.71;86.87;95865.00;5104232;28;20087;-89
2021/01/02 06:45:48;;;;;;;18.60;13.43;;;;;;;1.04;86.05;95906.13;5116241;28;20157;-89
2021/01/02 06:48:13;;;;;;;18.20;12.75;;;;;;;1.58;85.64;95957.63;5116391;28;20028;-90
2021/01/02 06:50:52;;;;;;;21.33;12.27;;;;;;;1.52;86.27;95932.50;5104989;28;20024;-89
2021/01/02 06:53:36;;;;;;;19.90;13.15;;;;;;;1.58;85.63;95954.97;5121892;28;20035;-90
2021/01/02 06:56:11;;;;;;;18.98;12.38;;;;;;;1.71;85.15;95952.47;5110063;28;20031;-90
2021/01/02 06:58:38;;;;;;;20.00;13.40;;;;;;;1.27;84.90;95886.66;5117193;28;20031;-90
2021/01/02 07:01:12;;;;;;;20.90;14.15;;;;;;;1.53;85.01;95914.50;5115948;28;20062;-89
2021/01/02 07:03:41;;;;;;;29.10;18.88;;;;;;;1.75;85.93;95955.81;5111831;28;20028;-90
2021/01/02 07:06:24;;;;;;;24.48;16.05;;;;;;;1.71;84.68;95952.47;5103005;28;20055;-91
2021/01/02 07:09:02;;;;;;;22.73;16.23;;;;;;;1.79;85.89;95950.41;5115577;28;20023;-90
2021/01/02 07:11:37;;;;;;;18.40;13.63;;;;;;;1.75;85.20;95966.53;5118996;28;20019;-90
2021/01/02 07:14:09;;;;;;;17.67;13.43;;;;;;;1.68;85.19;95973.94;5120763;28;20043;-91
2021/01/02 07:16:42;;;;;;;19.35;14.18;;;;;;;1.80;85.21;95968.00;5119349;28;20026;-91
2021/01/02 07:19:26;;;;;;;18.73;13.00;;;;;;;1.60;85.20;95938.50;5120310;28;20149;-91
2021/01/02 07:22:17;;;;;;;19.38;12.98;;;;;;;1.82;84.60;95971.78;5118362;28;20114;-90
2021/01/02 07:25:04;;;;;;;20.58;13.55;;;;;;;1.88;85.22;95977.44;5105016;28;20381;-90
2021/01/02 07:27:38;;;;;;;19.35;13.90;;;;;;;1.67;85.28;95922.31;5122597;28;20055;-90
2021/01/02 07:30:08;;;;;;;20.38;15.52;;;;;;;1.91;85.05;95965.88;5123717;28;20036;-90
2021/01/02 07:32:44;;;;;;;21.00;15.52;;;;;;;1.81;85.27;95948.06;5119924;28;20418;-90
2021/01/02 07:35:15;;;;;;;21.25;14.85;;;;;;;1.74;84.96;95956.22;5118823;28;20055;-88
2021/01/02 07:37:45;;;;;;;22.08;15.27;;;;;;;2.03;85.11;95964.53;5108598;28;20032;-90
2021/01/02 07:40:16;;;;;;;18.83;14.90;;;;;;;1.77;84.85;95948.16;5099025;28;20036;-91
2021/01/02 07:42:48;;;;;;;;;;;;;;;2.00;85.09;95978.75;5112034;28;20099;-90
2021/01/02 07:45:17;;;;;;;19.65;14.55;;;;;;;2.02;84.94;95973.72;5114097;28;19907;-89
2021/01/02 07:47:50;;;;;;;22.75;15.43;;;;;;;2.11;84.39;95976.63;5105558;28;20319;-90
2021/01/02 07:50:18;;;;;;;18.58;14.68;;;;;;;2.10;84.62;95967.06;5115096;28;20023;-90
2021/01/02 07:52:47;;;;;;;21.30;15.93;;;;;;;2.21;84.47;95974.91;5109361;28;20437;-89
2021/01/02 07:55:13;;;;;;;19.98;15.57;;;;;;;1.95;84.18;95923.72;5115227;28;20035;-88
2021/01/02 07:57:40;;;;;;;20.88;15.20;;;;;;;1.90;83.40;95928.78;5113174;28;20106;-87
2021/01/02 08:00:08;;;;;;;21.77;14.95;;;;;;;2.06;83.92;95951.06;5103208;28;20032;-89
2021/01/02 08:02:38;;;;;;;21.33;15.32;;;;;;;2.25;83.65;95978.31;5118619;28;20019;-89
2021/01/02 08:05:08;;;;;;;22.65;16.38;;;;;;;2.12;83.83;95969.34;5119945;28;20055;-88
2021/01/02 08:07:33;;;;;;;24.13;15.82;;;;;;;2.10;84.63;95970.50;5118949;28;20055;-89
2021/01/02 08:09:59;;;;;;;22.70;17.00;;;;;;;2.19;84.55;95964.63;5120263;28;20472;-90
2021/01/02 08:12:24;;;;;;;23.58;15.98;;;;;;;2.21;84.21;95964.19;5118009;28;20080;-90
2021/01/02 08:14:50;;;;;;;21.83;16.15;;;;;;;2.10;84.57;95938.34;5112903;28;20025;-88
2021/01/02 08:17:18;;;;;;;32.20;23.83;;;;;;;2.55;83.89;96004.88;5117868;28;20049;-88
2021/01/02 08:19:46;;;;;;;25.17;20.20;;;;;;;2.63;83.49;96000.91;5099865;28;20108;-88
2021/01/02 08:22:14;;;;;;;26.10;20.10;;;;;;;2.68;83.82;95998.91;5112811;28;20038;-91
2021/01/02 08:24:42;;;;;;;25.58;20.27;;;;;;;2.40;83.14;95951.97;5108519;28;20016;-91
2021/01/02 08:27:08;;;;;;;28.27;21.10;;;;;;;2.73;83.85;95985.78;5109882;28;20028;-90
2021/01/02 08:29:34;;;;;;;28.63;20.10;;;;;;;2.89;83.98;96004.59;5109623;28;20019;-89
2021/01/02 08:32:04;;;;;;;23.25;18.45;;;;;;;2.97;83.14;96005.19;5112642;28;20139;-88
2021/01/02 08:34:31;;;;;;;25.55;18.88;;;;;;;3.05;83.06;96003.88;5107765;28;20023;-87
2021/01/02 08:37:09;;;;;;;23.30;18.15;;;;;;;3.06;82.67;95986.59;5107795;28;20078;-89
2021/01/02 08:39:38;;;;;;;25.77;18.88;;;;;;;3.05;82.84;95981.66;5112423;28;20058;-91
2021/01/02 08:42:06;;;;;;;23.88;17.98;;;;;;;2.83;82.01;95931.16;5117027;28;20081;-93
2021/01/02 08:44:36;;;;;;;52.85;32.67;;;;;;;2.92;82.13;95930.56;5115903;28;20438;-92
2021/01/02 08:47:05;;;;;;;;;;;;;;;3.53;81.46;96013.19;5104928;28;20024;-92
2021/01/02 08:49:33;;;;;;;33.90;22.38;;;;;;;3.61;81.75;96009.13;5100217;28;20311;-91
2021/01/02 08:52:22;;;;;;;31.88;19.88;;;;;;;3.70;81.97;96013.19;5098464;28;20019;-89
2021/01/02 08:55:13;;;;;;;26.35;18.58;;;;;;;3.54;81.39;95979.75;5108948;28;20085;-89
2021/01/02 08:57:50;;;;;;;26.23;18.15;;;;;;;3.86;80.53;96015.84;5100271;28;20051;-91
2021/01/02 09:00:17;;;;;;;23.67;16.73;;;;;;;3.97;79.95;96024.41;5111366;28;20016;-90
2021/01/02 09:03:07;;;;;;;23.38;16.98;;;;;;;3.72;80.17;95992.75;5104604;28;20038;-90
2021/01/02 09:05:39;;;;;;;21.75;14.60;;;;;;;4.02;79.13;96025.84;5122446;27;20330;-89
2021/01/02 09:08:09;;;;;;;19.65;14.10;;;;;;;4.12;79.67;96039.00;5103584;28;20024;-90
2021/01/02 09:10:43;;;;;;;16.77;13.25;;;;;;;3.95;78.87;96002.59;5109534;28;20012;-88
2021/01/02 09:13:22;;;;;;;16.63;12.00;;;;;;;4.29;78.68;96045.09;5109729;28;20031;-90
2021/01/02 09:16:01;;;;;;;15.65;11.98;;;;;;;4.22;78.65;96004.22;5109430;28;20127;-88
2021/01/02 09:18:29;;;;;;;18.15;11.80;;;;;;;4.49;79.49;96039.59;5117386;28;20020;-90
2021/01/02 09:20:55;;;;;;;14.13;9.95;;;;;;;4.68;77.31;96027.91;5106377;28;20016;-91
2021/01/02 09:23:40;;;;;;;13.43;9.95;;;;;;;4.63;76.87;96012.31;5110703;28;20393;-90
2021/01/02 09:26:32;;;;;;;9.27;6.93;;;;;;;4.92;73.72;96024.97;5130018;27;20040;-90
2021/01/02 09:28:59;;;;;;;9.02;6.47;;;;;;;4.97;73.51;96025.19;5106277;28;20090;-90
2021/01/02 09:31:26;;;;;;;7.50;5.15;;;;;;;5.13;71.35;96018.97;5105969;28;20031;-90
2021/01/02 09:33:53;;;;;;;6.85;5.20;;;;;;;5.08;70.87;96006.06;5105176;28;20035;-90
2021/01/02 09:36:21;;;;;;;6.35;4.68;;;;;;;4.96;71.28;95980.63;5108324;28;20293;-90
2021/01/02 09:38:47;;;;;;;5.40;4.43;;;;;;;5.21;68.74;96006.06;5117358;28;20027;-91
2021/01/02 09:41:15;;;;;;;5.32;4.40;;;;;;;5.17;69.11;95984.63;5117177;28;20019;-89
2021/01/02 09:43:44;;;;;;;5.80;4.90;;;;;;;5.22;69.38;95981.41;5110460;28;20043;-88
2021/01/02 09:46:27;;;;;;;5.93;4.00;;;;;;;5.19;69.14;95981.50;5111005;28;20020;-90
2021/01/02 09:49:01;;;;;;;6.15;4.07;;;;;;;5.13;67.88;95959.75;5108613;28;20030;-88
2021/01/02 09:51:30;;;;;;;5.47;4.28;;;;;;;5.29;68.36;95995.84;5113469;28;20024;-88
2021/01/02 09:53:56;;;;;;;5.00;4.30;;;;;;;5.46;69.30;96011.44;5099996;28;20031;-89
2021/01/02 09:56:22;;;;;;;5.38;4.22;;;;;;;5.38;68.98;95993.22;5108476;28;20027;-88
2021/01/02 09:58:47;;;;;;;6.57;4.07;;;;;;;5.41;67.74;95978.91;5117912;28;20024;-89
2021/01/02 10:01:16;;;;;;;7.38;4.75;;;;;;;5.35;69.33;95961.78;5117076;28;20072;-88
2021/01/02 10:03:42;;;;;;;9.10;6.00;;;;;;;5.43;68.78;95971.91;5116264;28;20024;-89
2021/01/02 10:06:08;;;;;;;6.75;5.05;;;;;;;5.54;68.71;95982.38;5096831;28;20044;-89
2021/01/02 10:08:34;;;;;;;5.75;4.28;;;;;;;5.23;67.60;95926.38;5110875;28;20020;-89
2021/01/02 10:11:02;;;;;;;5.93;4.20;;;;;;;5.23;67.60;95926.38;5099329;28;20483;-90
2021/01/02 10:13:27;;;;;;;8.13;4.28;;;;;;;5.23;67.60;95926.38;5106624;28;20036;-88
2021/01/02 10:15:53;;;;;;;5.20;4.35;;;;;;;5.40;67.47;95929.69;5113573;28;20103;-89
2021/01/02 10:18:18;;;;;;;6.03;4.43;;;;;;;5.78;66.48;95986.19;5111897;28;20034;-86
2021/01/02 10:20:44;;;;;;;6.47;4.20;;;;;;;-98.70;65.79;95958.19;5113399;28;20023;-87
2021/01/02 10:23:09;;;;;;;5.07;4.13;;;;;;;5.81;100.00;68426.72;5100112;28;20358;-87
2021/01/02 10:25:35;;;;;;;6.25;4.22;;;;;;;5.82;66.24;95961.06;5096820;28;20035;-89
2021/01/02 10:28:00;;;;;;;6.82;4.03;;;;;;;5.82;66.24;95961.06;5102179;28;20035;-89
2021/01/02 10:30:26;;;;;;;6.82;4.55;;;;;;;5.71;65.71;95953.34;5116555;28;20076;-88
2021/01/02 10:32:52;;;;;;;5.25;4.10;;;;;;;6.03;66.57;95995.44;5115294;28;20074;-88
2021/01/02 10:35:18;;;;;;;5.20;4.32;;;;;;;-145.61;100.00;68426.72;5105121;28;20411;-89
2021/01/02 10:37:46;;;;;;;6.43;4.60;;;;;;;-145.61;100.00;68426.72;5116322;28;20031;-89
2021/01/02 10:40:13;;;;;;;7.97;5.93;;;;;;;5.81;66.25;95935.31;5112416;28;20327;-87
2021/01/02 10:42:40;;;;;;;8.93;5.88;;;;;;;-145.61;100.00;68426.72;5112950;28;20015;-89
2021/01/02 10:45:09;;;;;;;10.05;6.15;;;;;;;-145.61;100.00;68426.72;5107515;28;20020;-87
2021/01/02 10:47:34;;;;;;;9.00;6.07;;;;;;;5.81;66.25;95935.31;5113447;28;20454;-89
2021/01/02 10:50:00;;;;;;;10.32;7.03;;;;;;;-145.61;100.00;68426.72;5120474;28;20042;-87
2021/01/02 10:52:27;;;;;;;11.88;6.68;;;;;;;-145.61;100.00;68426.72;5116593;27;20023;-86
2021/01/02 10:54:53;;;;;;;7.18;5.80;;;;;;;5.81;66.25;95935.31;5113814;28;20053;-87
2021/01/02 10:57:20;;;;;;;8.90;5.68;;;;;;;5.81;66.25;95935.31;5114437;28;20068;-87
2021/01/02 10:59:48;;;;;;;7.57;5.35;;;;;;;-145.61;100.00;68426.72;5114057;28;20119;-87
2021/01/02 11:02:15;;;;;;;9.20;5.28;;;;;;;5.81;66.25;95935.31;5109709;28;20085;-87
2021/01/02 11:04:41;;;;;;;7.80;5.60;;;;;;;5.81;66.25;95935.31;5111177;28;20104;-87
2021/01/02 11:07:07;;;;;;;8.35;5.18;;;;;;;-145.61;100.00;68426.72;5109718;28;20110;-87
2021/01/02 11:09:33;;;;;;;5.57;4.53;;;;;;;-145.61;100.00;68426.72;5103020;28;20057;-86
2021/01/02 11:11:58;;;;;;;8.60;6.65;;;;;;;-145.61;100.00;68426.72;5112299;28;20415;-87
2021/01/02 11:14:24;;;;;;;7.70;5.60;;;;;;;-145.61;100.00;68426.72;5113532;28;20035;-88
2021/01/02 11:16:50;;;;;;;8.57;6.07;;;;;;;-145.61;100.00;68426.72;5117668;28;20093;-88
2021/01/02 11:19:20;;;;;;;7.57;5.35;;;;;;;-145.61;100.00;68426.72;5120843;28;20027;-89
2021/01/02 11:21:48;;;;;;;7.63;5.13;;;;;;;-145.61;100.00;68426.72;5120911;28;20024;-90
2021/01/02 11:24:15;;;;;;;6.55;4.90;;;;;;;-145.61;100.00;68426.72;5120621;28;20427;-88
2021/01/02 11:26:47;;;;;;;7.70;4.78;;;;;;;-145.61;100.00;68426.72;5119936;28;20016;-87
2021/01/02 11:29:15;;;;;;;7.15;4.93;;;;;;;-145.61;100.00;68426.72;5117331;28;20030;-87
2021/01/02 11:31:41;;;;;;;7.63;5.05;;;;;;;-145.61;100.00;68426.72;5119771;28;20020;-86
2021/01/02 11:34:07;;;;;;;9.57;5.03;;;;;;;-145.61;100.00;68426.72;5114478;28;20469;-85
2021/01/02 11:36:33;;;;;;;8.35;6.05;;;;;;;-145.61;100.00;68426.72;5111426;28;20357;-86
2021/01/02 11:39:00;;;;;;;7.32;5.65;;;;;;;-145.61;100.00;68426.72;5114940;28;20023;-87
2021/01/02 11:41:32;;;;;;;7.00;5.10;;;;;;;-145.61;100.00;68426.72;5104647;28;20060;-86
2021/01/02 11:43:58;;;;;;;7.05;5.07;;;;;;;-145.61;100.00;68426.72;5107483;28;20020;-86